sensor_id;sensor_type;location;lat;lon;timestamp;P1;durP1;ratioP1;P2;durP2;ratioP2
85983;SDS011;76557;45.488;12.254;2024-02-21T00:03:49;39.40;;;22.83;;
85983;SDS011;76557;45.488;12.254;2024-02-21T00:07:45;40.70;;;22.75;;
85983;SDS011;76557;45.488;12.254;2024-02-21T00:11:40;41.08;;;23.30;;
85983;SDS011;76557;45.488;12.254;2024-02-21T00:15:35;43.45;;;24.13;;
85983;SDS011;76557;45.488;12.254;2024-02-21T00:19:31;46.72;;;24.60;;
85983;SDS011;76557;45.488;12.254;2024-02-21T00:23:26;49.28;;;23.95;;
85983;SDS011;76557;45.488;12.254;2024-02-21T00:27:22;42.88;;;25.48;;
85983;SDS011;76557;45.488;12.254;2024-02-21T00:31:17;44.47;;;25.92;;
85983;SDS011;76557;45.488;12.254;2024-02-21T00:35:13;47.22;;;24.70;;
85983;SDS011;76557;45.488;12.254;2024-02-21T00:39:09;54.10;;;28.25;;
85983;SDS011;76557;45.488;12.254;2024-02-21T00:43:04;51.97;;;25.95;;
85983;SDS011;76557;45.488;12.254;2024-02-21T00:46:59;50.00;;;27.83;;
85983;SDS011;76557;45.488;12.254;2024-02-21T00:50:55;54.45;;;33.05;;
85983;SDS011;76557;45.488;12.254;2024-02-21T00:54:50;56.05;;;29.23;;
85983;SDS011;76557;45.488;12.254;2024-02-21T00:58:46;60.28;;;32.08;;
85983;SDS011;76557;45.488;12.254;2024-02-21T01:02:41;60.05;;;31.65;;
85983;SDS011;76557;45.488;12.254;2024-02-21T01:06:37;64.40;;;34.60;;
85983;SDS011;76557;45.488;12.254;2024-02-21T01:10:33;58.95;;;34.22;;
85983;SDS011;76557;45.488;12.254;2024-02-21T01:14:28;59.88;;;34.10;;
85983;SDS011;76557;45.488;12.254;2024-02-21T01:18:23;63.83;;;32.78;;
85983;SDS011;76557;45.488;12.254;2024-02-21T01:22:19;61.50;;;32.72;;
85983;SDS011;76557;45.488;12.254;2024-02-21T01:26:14;58.67;;;32.67;;
85983;SDS011;76557;45.488;12.254;2024-02-21T01:30:10;55.92;;;31.40;;
85983;SDS011;76557;45.488;12.254;2024-02-21T01:34:06;56.25;;;31.80;;
85983;SDS011;76557;45.488;12.254;2024-02-21T01:38:01;56.50;;;28.90;;
85983;SDS011;76557;45.488;12.254;2024-02-21T01:41:57;56.78;;;29.77;;
85983;SDS011;76557;45.488;12.254;2024-02-21T01:45:54;55.03;;;32.22;;
85983;SDS011;76557;45.488;12.254;2024-02-21T01:49:50;53.97;;;29.23;;
85983;SDS011;76557;45.488;12.254;2024-02-21T01:53:46;54.15;;;28.15;;
85983;SDS011;76557;45.488;12.254;2024-02-21T01:57:42;49.15;;;26.48;;
85983;SDS011;76557;45.488;12.254;2024-02-21T02:01:40;48.00;;;25.77;;
85983;SDS011;76557;45.488;12.254;2024-02-21T02:05:36;40.25;;;23.83;;
85983;SDS011;76557;45.488;12.254;2024-02-21T02:09:32;46.72;;;24.88;;
85983;SDS011;76557;45.488;12.254;2024-02-21T02:13:28;45.75;;;27.55;;
85983;SDS011;76557;45.488;12.254;2024-02-21T02:17:23;42.58;;;24.45;;
85983;SDS011;76557;45.488;12.254;2024-02-21T02:21:35;47.40;;;26.58;;
85983;SDS011;76557;45.488;12.254;2024-02-21T02:25:37;46.85;;;25.85;;
85983;SDS011;76557;45.488;12.254;2024-02-21T02:29:33;46.17;;;25.90;;
85983;SDS011;76557;45.488;12.254;2024-02-21T02:33:28;51.60;;;27.02;;
85983;SDS011;76557;45.488;12.254;2024-02-21T02:37:23;45.35;;;26.27;;
85983;SDS011;76557;45.488;12.254;2024-02-21T02:41:19;47.85;;;25.08;;
85983;SDS011;76557;45.488;12.254;2024-02-21T02:45:17;50.95;;;28.13;;
85983;SDS011;76557;45.488;12.254;2024-02-21T02:49:13;48.25;;;26.55;;
85983;SDS011;76557;45.488;12.254;2024-02-21T02:53:08;46.78;;;26.13;;
85983;SDS011;76557;45.488;12.254;2024-02-21T02:57:04;44.88;;;25.52;;
85983;SDS011;76557;45.488;12.254;2024-02-21T03:01:00;48.78;;;27.55;;
85983;SDS011;76557;45.488;12.254;2024-02-21T03:04:57;44.55;;;25.15;;
85983;SDS011;76557;45.488;12.254;2024-02-21T03:08:52;39.83;;;25.13;;
85983;SDS011;76557;45.488;12.254;2024-02-21T03:12:49;41.53;;;25.60;;
85983;SDS011;76557;45.488;12.254;2024-02-21T03:16:47;39.20;;;25.40;;
85983;SDS011;76557;45.488;12.254;2024-02-21T03:20:43;39.00;;;21.63;;
85983;SDS011;76557;45.488;12.254;2024-02-21T03:24:38;34.65;;;22.90;;
85983;SDS011;76557;45.488;12.254;2024-02-21T03:28:33;33.80;;;22.17;;
85983;SDS011;76557;45.488;12.254;2024-02-21T03:32:29;30.65;;;17.33;;
85983;SDS011;76557;45.488;12.254;2024-02-21T03:36:24;36.97;;;20.88;;
85983;SDS011;76557;45.488;12.254;2024-02-21T03:40:19;33.40;;;20.65;;
85983;SDS011;76557;45.488;12.254;2024-02-21T03:44:15;35.38;;;18.85;;
85983;SDS011;76557;45.488;12.254;2024-02-21T03:48:10;33.97;;;20.65;;
85983;SDS011;76557;45.488;12.254;2024-02-21T03:52:06;31.77;;;19.52;;
85983;SDS011;76557;45.488;12.254;2024-02-21T03:56:01;31.27;;;21.58;;
85983;SDS011;76557;45.488;12.254;2024-02-21T03:59:58;30.88;;;17.58;;
85983;SDS011;76557;45.488;12.254;2024-02-21T04:03:54;33.10;;;18.00;;
85983;SDS011;76557;45.488;12.254;2024-02-21T04:07:49;34.25;;;18.35;;
85983;SDS011;76557;45.488;12.254;2024-02-21T04:11:46;31.60;;;18.17;;
85983;SDS011;76557;45.488;12.254;2024-02-21T04:15:41;34.10;;;21.45;;
85983;SDS011;76557;45.488;12.254;2024-02-21T04:19:36;34.75;;;22.52;;
85983;SDS011;76557;45.488;12.254;2024-02-21T04:23:32;33.75;;;19.67;;
85983;SDS011;76557;45.488;12.254;2024-02-21T04:27:27;29.33;;;15.95;;
85983;SDS011;76557;45.488;12.254;2024-02-21T04:31:22;29.35;;;15.25;;
85983;SDS011;76557;45.488;12.254;2024-02-21T04:35:18;30.05;;;15.77;;
85983;SDS011;76557;45.488;12.254;2024-02-21T04:39:13;29.35;;;15.27;;
85983;SDS011;76557;45.488;12.254;2024-02-21T04:43:09;27.98;;;15.23;;
85983;SDS011;76557;45.488;12.254;2024-02-21T04:47:04;28.98;;;19.05;;
85983;SDS011;76557;45.488;12.254;2024-02-21T04:50:59;24.27;;;14.55;;
85983;SDS011;76557;45.488;12.254;2024-02-21T04:54:55;25.15;;;16.70;;
85983;SDS011;76557;45.488;12.254;2024-02-21T04:58:51;26.30;;;15.50;;
85983;SDS011;76557;45.488;12.254;2024-02-21T05:02:46;28.33;;;16.75;;
85983;SDS011;76557;45.488;12.254;2024-02-21T05:06:42;26.63;;;14.75;;
85983;SDS011;76557;45.488;12.254;2024-02-21T05:10:37;29.25;;;15.68;;
85983;SDS011;76557;45.488;12.254;2024-02-21T05:14:32;28.58;;;17.05;;
85983;SDS011;76557;45.488;12.254;2024-02-21T05:18:28;25.58;;;16.58;;
85983;SDS011;76557;45.488;12.254;2024-02-21T05:22:23;25.77;;;16.90;;
85983;SDS011;76557;45.488;12.254;2024-02-21T05:26:22;24.27;;;14.38;;
85983;SDS011;76557;45.488;12.254;2024-02-21T05:30:21;27.65;;;17.08;;
85983;SDS011;76557;45.488;12.254;2024-02-21T05:34:19;27.27;;;16.50;;
85983;SDS011;76557;45.488;12.254;2024-02-21T05:38:15;22.83;;;15.63;;
85983;SDS011;76557;45.488;12.254;2024-02-21T05:42:11;28.65;;;14.70;;
85983;SDS011;76557;45.488;12.254;2024-02-21T05:46:06;28.48;;;16.58;;
85983;SDS011;76557;45.488;12.254;2024-02-21T05:50:01;29.73;;;17.85;;
85983;SDS011;76557;45.488;12.254;2024-02-21T05:53:57;28.15;;;15.18;;
85983;SDS011;76557;45.488;12.254;2024-02-21T05:57:55;28.90;;;18.70;;
85983;SDS011;76557;45.488;12.254;2024-02-21T06:01:57;27.80;;;18.48;;
85983;SDS011;76557;45.488;12.254;2024-02-21T06:05:53;29.00;;;15.77;;
85983;SDS011;76557;45.488;12.254;2024-02-21T06:09:48;30.70;;;18.00;;
85983;SDS011;76557;45.488;12.254;2024-02-21T06:13:43;25.00;;;15.93;;
85983;SDS011;76557;45.488;12.254;2024-02-21T06:17:39;25.83;;;15.88;;
85983;SDS011;76557;45.488;12.254;2024-02-21T06:21:34;25.92;;;14.60;;
85983;SDS011;76557;45.488;12.254;2024-02-21T06:25:29;24.35;;;15.98;;
85983;SDS011;76557;45.488;12.254;2024-02-21T06:29:25;25.73;;;15.63;;
85983;SDS011;76557;45.488;12.254;2024-02-21T06:33:20;22.55;;;14.20;;
85983;SDS011;76557;45.488;12.254;2024-02-21T06:37:19;23.88;;;12.07;;
85983;SDS011;76557;45.488;12.254;2024-02-21T06:41:18;24.48;;;13.25;;
85983;SDS011;76557;45.488;12.254;2024-02-21T06:45:14;24.20;;;13.93;;
85983;SDS011;76557;45.488;12.254;2024-02-21T06:49:10;24.00;;;14.90;;
85983;SDS011;76557;45.488;12.254;2024-02-21T06:53:10;22.52;;;14.35;;
85983;SDS011;76557;45.488;12.254;2024-02-21T06:57:06;24.27;;;14.73;;
85983;SDS011;76557;45.488;12.254;2024-02-21T07:01:01;19.73;;;11.10;;
85983;SDS011;76557;45.488;12.254;2024-02-21T07:04:58;18.23;;;9.82;;
85983;SDS011;76557;45.488;12.254;2024-02-21T07:08:53;16.13;;;9.33;;
85983;SDS011;76557;45.488;12.254;2024-02-21T07:12:49;20.08;;;8.98;;
85983;SDS011;76557;45.488;12.254;2024-02-21T07:16:44;13.85;;;7.78;;
85983;SDS011;76557;45.488;12.254;2024-02-21T07:20:39;14.65;;;7.53;;
85983;SDS011;76557;45.488;12.254;2024-02-21T07:24:36;13.68;;;6.88;;
85983;SDS011;76557;45.488;12.254;2024-02-21T07:28:32;15.20;;;7.72;;
85983;SDS011;76557;45.488;12.254;2024-02-21T07:32:28;15.35;;;8.18;;
85983;SDS011;76557;45.488;12.254;2024-02-21T07:36:29;13.93;;;8.45;;
85983;SDS011;76557;45.488;12.254;2024-02-21T07:40:25;16.35;;;8.07;;
85983;SDS011;76557;45.488;12.254;2024-02-21T07:44:20;14.68;;;7.30;;
85983;SDS011;76557;45.488;12.254;2024-02-21T07:48:16;15.13;;;8.70;;
85983;SDS011;76557;45.488;12.254;2024-02-21T07:52:13;13.10;;;7.22;;
85983;SDS011;76557;45.488;12.254;2024-02-21T07:56:09;11.18;;;6.80;;
85983;SDS011;76557;45.488;12.254;2024-02-21T08:00:04;13.68;;;6.88;;
85983;SDS011;76557;45.488;12.254;2024-02-21T08:07:55;12.50;;;6.20;;
85983;SDS011;76557;45.488;12.254;2024-02-21T08:11:51;14.25;;;7.18;;
85983;SDS011;76557;45.488;12.254;2024-02-21T08:15:46;14.43;;;7.25;;
85983;SDS011;76557;45.488;12.254;2024-02-21T08:19:41;9.20;;;5.25;;
85983;SDS011;76557;45.488;12.254;2024-02-21T08:27:32;8.80;;;5.13;;
85983;SDS011;76557;45.488;12.254;2024-02-21T08:31:27;11.07;;;5.27;;
85983;SDS011;76557;45.488;12.254;2024-02-21T08:35:26;8.30;;;5.60;;
85983;SDS011;76557;45.488;12.254;2024-02-21T08:43:16;9.75;;;4.75;;
85983;SDS011;76557;45.488;12.254;2024-02-21T08:47:12;9.73;;;5.40;;
85983;SDS011;76557;45.488;12.254;2024-02-21T08:51:07;11.85;;;5.15;;
85983;SDS011;76557;45.488;12.254;2024-02-21T08:55:04;7.65;;;5.03;;
85983;SDS011;76557;45.488;12.254;2024-02-21T08:58:59;7.47;;;4.57;;
85983;SDS011;76557;45.488;12.254;2024-02-21T09:02:55;9.20;;;5.40;;
85983;SDS011;76557;45.488;12.254;2024-02-21T09:06:53;9.77;;;5.40;;
85983;SDS011;76557;45.488;12.254;2024-02-21T09:10:48;8.80;;;5.43;;
85983;SDS011;76557;45.488;12.254;2024-02-21T09:14:43;7.97;;;5.17;;
85983;SDS011;76557;45.488;12.254;2024-02-21T09:18:40;7.40;;;4.63;;
85983;SDS011;76557;45.488;12.254;2024-02-21T09:22:36;8.32;;;5.80;;
85983;SDS011;76557;45.488;12.254;2024-02-21T09:26:32;8.13;;;5.35;;
85983;SDS011;76557;45.488;12.254;2024-02-21T09:30:28;7.97;;;4.63;;
85983;SDS011;76557;45.488;12.254;2024-02-21T09:34:23;7.35;;;5.47;;
85983;SDS011;76557;45.488;12.254;2024-02-21T09:38:19;8.70;;;5.03;;
85983;SDS011;76557;45.488;12.254;2024-02-21T09:42:14;8.27;;;4.27;;
85983;SDS011;76557;45.488;12.254;2024-02-21T09:46:16;8.88;;;3.97;;
85983;SDS011;76557;45.488;12.254;2024-02-21T09:50:15;13.32;;;4.78;;
85983;SDS011;76557;45.488;12.254;2024-02-21T09:54:12;6.78;;;4.53;;
85983;SDS011;76557;45.488;12.254;2024-02-21T09:58:08;8.98;;;3.88;;
85983;SDS011;76557;45.488;12.254;2024-02-21T10:02:04;7.50;;;4.28;;
85983;SDS011;76557;45.488;12.254;2024-02-21T10:06:00;6.63;;;4.15;;
85983;SDS011;76557;45.488;12.254;2024-02-21T10:10:05;7.35;;;3.97;;
85983;SDS011;76557;45.488;12.254;2024-02-21T10:14:04;6.68;;;3.80;;
85983;SDS011;76557;45.488;12.254;2024-02-21T10:18:01;9.93;;;4.03;;
85983;SDS011;76557;45.488;12.254;2024-02-21T10:22:02;8.10;;;4.30;;
85983;SDS011;76557;45.488;12.254;2024-02-21T10:26:05;9.85;;;4.70;;
85983;SDS011;76557;45.488;12.254;2024-02-21T10:30:01;8.00;;;4.40;;
85983;SDS011;76557;45.488;12.254;2024-02-21T10:33:57;7.07;;;4.10;;
85983;SDS011;76557;45.488;12.254;2024-02-21T10:38:00;9.20;;;4.60;;
85983;SDS011;76557;45.488;12.254;2024-02-21T10:41:56;6.60;;;4.05;;
85983;SDS011;76557;45.488;12.254;2024-02-21T10:45:55;6.82;;;4.28;;
85983;SDS011;76557;45.488;12.254;2024-02-21T10:49:56;7.63;;;3.90;;
85983;SDS011;76557;45.488;12.254;2024-02-21T10:58:48;7.43;;;4.28;;
85983;SDS011;76557;45.488;12.254;2024-02-21T11:02:44;6.85;;;4.32;;
85983;SDS011;76557;45.488;12.254;2024-02-21T11:06:41;7.68;;;5.00;;
85983;SDS011;76557;45.488;12.254;2024-02-21T11:10:37;8.23;;;4.63;;
85983;SDS011;76557;45.488;12.254;2024-02-21T11:14:37;7.72;;;3.35;;
85983;SDS011;76557;45.488;12.254;2024-02-21T11:18:35;8.43;;;5.00;;
85983;SDS011;76557;45.488;12.254;2024-02-21T11:22:40;7.43;;;4.43;;
85983;SDS011;76557;45.488;12.254;2024-02-21T11:26:37;8.00;;;5.00;;
85983;SDS011;76557;45.488;12.254;2024-02-21T11:30:36;7.68;;;4.38;;
85983;SDS011;76557;45.488;12.254;2024-02-21T11:34:33;7.55;;;3.75;;
85983;SDS011;76557;45.488;12.254;2024-02-21T11:38:29;7.13;;;4.75;;
85983;SDS011;76557;45.488;12.254;2024-02-21T11:42:27;8.57;;;5.43;;
85983;SDS011;76557;45.488;12.254;2024-02-21T11:46:24;7.65;;;5.18;;
85983;SDS011;76557;45.488;12.254;2024-02-21T11:50:19;6.47;;;3.58;;
85983;SDS011;76557;45.488;12.254;2024-02-21T11:54:15;9.02;;;3.75;;
85983;SDS011;76557;45.488;12.254;2024-02-21T11:58:12;7.93;;;3.60;;
85983;SDS011;76557;45.488;12.254;2024-02-21T12:02:07;7.13;;;3.83;;
85983;SDS011;76557;45.488;12.254;2024-02-21T12:06:02;7.93;;;5.88;;
85983;SDS011;76557;45.488;12.254;2024-02-21T12:09:58;9.95;;;5.68;;
85983;SDS011;76557;45.488;12.254;2024-02-21T12:13:59;8.13;;;4.93;;
85983;SDS011;76557;45.488;12.254;2024-02-21T12:17:59;9.65;;;5.35;;
85983;SDS011;76557;45.488;12.254;2024-02-21T12:21:55;9.20;;;5.65;;
85983;SDS011;76557;45.488;12.254;2024-02-21T12:25:52;8.07;;;4.78;;
85983;SDS011;76557;45.488;12.254;2024-02-21T12:29:51;10.65;;;5.68;;
85983;SDS011;76557;45.488;12.254;2024-02-21T12:33:46;9.32;;;5.20;;
85983;SDS011;76557;45.488;12.254;2024-02-21T12:37:41;7.03;;;4.60;;
85983;SDS011;76557;45.488;12.254;2024-02-21T12:41:37;9.15;;;5.10;;
85983;SDS011;76557;45.488;12.254;2024-02-21T12:45:35;7.97;;;4.85;;
85983;SDS011;76557;45.488;12.254;2024-02-21T12:49:31;11.13;;;4.95;;
85983;SDS011;76557;45.488;12.254;2024-02-21T12:53:26;8.68;;;4.55;;
85983;SDS011;76557;45.488;12.254;2024-02-21T12:57:22;9.70;;;5.13;;
85983;SDS011;76557;45.488;12.254;2024-02-21T13:01:17;9.27;;;5.03;;
85983;SDS011;76557;45.488;12.254;2024-02-21T13:05:12;9.23;;;5.25;;
85983;SDS011;76557;45.488;12.254;2024-02-21T13:09:08;9.73;;;5.40;;
85983;SDS011;76557;45.488;12.254;2024-02-21T13:13:06;11.55;;;5.13;;
85983;SDS011;76557;45.488;12.254;2024-02-21T13:17:01;11.70;;;5.32;;
85983;SDS011;76557;45.488;12.254;2024-02-21T13:20:56;8.87;;;4.47;;
85983;SDS011;76557;45.488;12.254;2024-02-21T13:24:52;11.77;;;5.17;;
85983;SDS011;76557;45.488;12.254;2024-02-21T13:28:47;11.35;;;5.07;;
85983;SDS011;76557;45.488;12.254;2024-02-21T13:32:43;10.50;;;6.15;;
85983;SDS011;76557;45.488;12.254;2024-02-21T13:36:41;10.13;;;6.07;;
85983;SDS011;76557;45.488;12.254;2024-02-21T13:40:37;9.70;;;4.57;;
85983;SDS011;76557;45.488;12.254;2024-02-21T13:44:32;13.65;;;6.05;;
85983;SDS011;76557;45.488;12.254;2024-02-21T13:48:27;10.60;;;5.80;;
85983;SDS011;76557;45.488;12.254;2024-02-21T13:52:25;9.30;;;4.03;;
85983;SDS011;76557;45.488;12.254;2024-02-21T13:56:23;8.55;;;5.20;;
85983;SDS011;76557;45.488;12.254;2024-02-21T14:00:18;8.70;;;5.30;;
85983;SDS011;76557;45.488;12.254;2024-02-21T14:04:15;7.70;;;4.57;;
85983;SDS011;76557;45.488;12.254;2024-02-21T14:08:10;8.50;;;4.57;;
85983;SDS011;76557;45.488;12.254;2024-02-21T14:12:06;7.80;;;3.38;;
85983;SDS011;76557;45.488;12.254;2024-02-21T14:16:15;9.80;;;4.72;;
85983;SDS011;76557;45.488;12.254;2024-02-21T14:24:08;11.38;;;4.35;;
85983;SDS011;76557;45.488;12.254;2024-02-21T14:28:04;10.25;;;5.10;;
85983;SDS011;76557;45.488;12.254;2024-02-21T14:35:55;8.03;;;4.67;;
85983;SDS011;76557;45.488;12.254;2024-02-21T14:39:50;7.13;;;4.55;;
85983;SDS011;76557;45.488;12.254;2024-02-21T14:43:46;7.57;;;3.47;;
85983;SDS011;76557;45.488;12.254;2024-02-21T14:47:41;8.50;;;3.80;;
85983;SDS011;76557;45.488;12.254;2024-02-21T14:51:37;8.23;;;3.17;;
85983;SDS011;76557;45.488;12.254;2024-02-21T14:55:32;9.13;;;3.17;;
85983;SDS011;76557;45.488;12.254;2024-02-21T14:59:27;7.22;;;2.95;;
85983;SDS011;76557;45.488;12.254;2024-02-21T15:03:23;8.45;;;3.55;;
85983;SDS011;76557;45.488;12.254;2024-02-21T15:07:20;8.60;;;3.55;;
85983;SDS011;76557;45.488;12.254;2024-02-21T15:11:18;9.90;;;3.10;;
85983;SDS011;76557;45.488;12.254;2024-02-21T15:15:14;8.15;;;3.03;;
85983;SDS011;76557;45.488;12.254;2024-02-21T15:19:09;9.13;;;2.85;;
85983;SDS011;76557;45.488;12.254;2024-02-21T15:23:05;13.77;;;2.75;;
85983;SDS011;76557;45.488;12.254;2024-02-21T15:27:00;8.10;;;2.83;;
85983;SDS011;76557;45.488;12.254;2024-02-21T15:30:55;9.93;;;3.22;;
85983;SDS011;76557;45.488;12.254;2024-02-21T15:34:51;7.53;;;2.60;;
85983;SDS011;76557;45.488;12.254;2024-02-21T15:38:47;10.70;;;3.13;;
85983;SDS011;76557;45.488;12.254;2024-02-21T15:42:42;8.38;;;2.75;;
85983;SDS011;76557;45.488;12.254;2024-02-21T15:46:38;6.47;;;2.72;;
85983;SDS011;76557;45.488;12.254;2024-02-21T15:50:33;7.18;;;3.50;;
85983;SDS011;76557;45.488;12.254;2024-02-21T15:54:28;6.43;;;3.03;;
85983;SDS011;76557;45.488;12.254;2024-02-21T15:58:24;6.22;;;2.35;;
85983;SDS011;76557;45.488;12.254;2024-02-21T16:02:20;6.22;;;2.72;;
85983;SDS011;76557;45.488;12.254;2024-02-21T16:06:16;10.38;;;3.65;;
85983;SDS011;76557;45.488;12.254;2024-02-21T16:10:11;7.05;;;3.50;;
85983;SDS011;76557;45.488;12.254;2024-02-21T16:14:07;11.60;;;3.78;;
85983;SDS011;76557;45.488;12.254;2024-02-21T16:18:02;11.95;;;4.03;;
85983;SDS011;76557;45.488;12.254;2024-02-21T16:21:58;10.40;;;3.58;;
85983;SDS011;76557;45.488;12.254;2024-02-21T16:25:55;8.55;;;3.95;;
85983;SDS011;76557;45.488;12.254;2024-02-21T16:29:50;9.52;;;3.85;;
85983;SDS011;76557;45.488;12.254;2024-02-21T16:33:46;9.20;;;3.63;;
85983;SDS011;76557;45.488;12.254;2024-02-21T16:37:41;9.15;;;4.03;;
85983;SDS011;76557;45.488;12.254;2024-02-21T16:41:36;8.35;;;3.95;;
85983;SDS011;76557;45.488;12.254;2024-02-21T16:45:32;9.00;;;4.10;;
85983;SDS011;76557;45.488;12.254;2024-02-21T16:49:28;8.50;;;4.03;;
85983;SDS011;76557;45.488;12.254;2024-02-21T16:53:25;8.43;;;3.53;;
85983;SDS011;76557;45.488;12.254;2024-02-21T16:57:20;10.13;;;3.78;;
85983;SDS011;76557;45.488;12.254;2024-02-21T17:01:15;7.65;;;3.50;;
85983;SDS011;76557;45.488;12.254;2024-02-21T17:05:11;10.80;;;4.38;;
85983;SDS011;76557;45.488;12.254;2024-02-21T17:09:06;8.35;;;4.20;;
85983;SDS011;76557;45.488;12.254;2024-02-21T17:16:59;14.95;;;4.22;;
85983;SDS011;76557;45.488;12.254;2024-02-21T17:20:54;10.75;;;4.18;;
85983;SDS011;76557;45.488;12.254;2024-02-21T17:24:50;8.40;;;4.20;;
85983;SDS011;76557;45.488;12.254;2024-02-21T17:28:45;8.20;;;5.68;;
85983;SDS011;76557;45.488;12.254;2024-02-21T17:32:40;7.80;;;3.80;;
85983;SDS011;76557;45.488;12.254;2024-02-21T17:36:36;8.68;;;4.25;;
85983;SDS011;76557;45.488;12.254;2024-02-21T17:40:31;8.60;;;4.75;;
85983;SDS011;76557;45.488;12.254;2024-02-21T17:44:27;8.48;;;4.20;;
85983;SDS011;76557;45.488;12.254;2024-02-21T17:56:15;10.02;;;4.38;;
85983;SDS011;76557;45.488;12.254;2024-02-21T18:00:11;9.68;;;4.80;;
85983;SDS011;76557;45.488;12.254;2024-02-21T18:04:07;11.63;;;5.50;;
85983;SDS011;76557;45.488;12.254;2024-02-21T18:08:02;10.02;;;6.88;;
85983;SDS011;76557;45.488;12.254;2024-02-21T18:11:58;12.40;;;6.65;;
85983;SDS011;76557;45.488;12.254;2024-02-21T18:15:53;15.20;;;6.72;;
85983;SDS011;76557;45.488;12.254;2024-02-21T18:19:49;12.75;;;6.38;;
85983;SDS011;76557;45.488;12.254;2024-02-21T18:23:44;13.32;;;8.43;;
85983;SDS011;76557;45.488;12.254;2024-02-21T18:27:40;14.98;;;7.35;;
85983;SDS011;76557;45.488;12.254;2024-02-21T18:31:36;13.98;;;8.32;;
85983;SDS011;76557;45.488;12.254;2024-02-21T18:35:33;12.70;;;8.27;;
85983;SDS011;76557;45.488;12.254;2024-02-21T18:39:28;11.95;;;7.22;;
85983;SDS011;76557;45.488;12.254;2024-02-21T18:43:24;12.70;;;7.90;;
85983;SDS011;76557;45.488;12.254;2024-02-21T18:47:19;13.48;;;6.88;;
85983;SDS011;76557;45.488;12.254;2024-02-21T18:51:16;14.45;;;8.15;;
85983;SDS011;76557;45.488;12.254;2024-02-21T18:55:14;17.88;;;9.95;;
85983;SDS011;76557;45.488;12.254;2024-02-21T18:59:10;14.60;;;9.32;;
85983;SDS011;76557;45.488;12.254;2024-02-21T19:03:06;16.02;;;10.45;;
85983;SDS011;76557;45.488;12.254;2024-02-21T19:07:01;15.93;;;9.73;;
85983;SDS011;76557;45.488;12.254;2024-02-21T19:10:57;14.55;;;8.70;;
85983;SDS011;76557;45.488;12.254;2024-02-21T19:14:52;15.93;;;9.93;;
85983;SDS011;76557;45.488;12.254;2024-02-21T19:18:47;17.60;;;8.73;;
85983;SDS011;76557;45.488;12.254;2024-02-21T19:22:43;17.10;;;8.82;;
85983;SDS011;76557;45.488;12.254;2024-02-21T19:26:40;17.63;;;10.68;;
85983;SDS011;76557;45.488;12.254;2024-02-21T19:30:36;15.30;;;9.18;;
85983;SDS011;76557;45.488;12.254;2024-02-21T19:34:35;18.58;;;10.68;;
85983;SDS011;76557;45.488;12.254;2024-02-21T19:38:30;18.10;;;11.20;;
85983;SDS011;76557;45.488;12.254;2024-02-21T19:42:26;17.50;;;8.82;;
85983;SDS011;76557;45.488;12.254;2024-02-21T19:46:21;16.85;;;9.20;;
85983;SDS011;76557;45.488;12.254;2024-02-21T19:50:18;18.70;;;12.48;;
85983;SDS011;76557;45.488;12.254;2024-02-21T19:54:17;19.85;;;10.00;;
85983;SDS011;76557;45.488;12.254;2024-02-21T19:58:14;24.25;;;11.18;;
85983;SDS011;76557;45.488;12.254;2024-02-21T20:02:09;19.95;;;11.07;;
85983;SDS011;76557;45.488;12.254;2024-02-21T20:06:05;26.33;;;14.00;;
85983;SDS011;76557;45.488;12.254;2024-02-21T20:10:03;26.35;;;13.13;;
85983;SDS011;76557;45.488;12.254;2024-02-21T20:14:02;28.20;;;15.43;;
85983;SDS011;76557;45.488;12.254;2024-02-21T20:17:57;28.73;;;15.73;;
85983;SDS011;76557;45.488;12.254;2024-02-21T20:21:54;23.60;;;14.05;;
85983;SDS011;76557;45.488;12.254;2024-02-21T20:25:49;29.15;;;16.23;;
85983;SDS011;76557;45.488;12.254;2024-02-21T20:29:47;28.52;;;14.73;;
85983;SDS011;76557;45.488;12.254;2024-02-21T20:33:43;30.77;;;15.90;;
85983;SDS011;76557;45.488;12.254;2024-02-21T20:37:38;38.05;;;18.05;;
85983;SDS011;76557;45.488;12.254;2024-02-21T20:41:33;33.55;;;17.77;;
85983;SDS011;76557;45.488;12.254;2024-02-21T20:45:29;36.95;;;18.60;;
85983;SDS011;76557;45.488;12.254;2024-02-21T20:49:25;35.47;;;17.92;;
85983;SDS011;76557;45.488;12.254;2024-02-21T20:53:20;36.72;;;21.33;;
85983;SDS011;76557;45.488;12.254;2024-02-21T20:57:18;34.55;;;18.27;;
85983;SDS011;76557;45.488;12.254;2024-02-21T21:01:14;40.70;;;20.50;;
85983;SDS011;76557;45.488;12.254;2024-02-21T21:05:10;37.35;;;19.48;;
85983;SDS011;76557;45.488;12.254;2024-02-21T21:09:05;36.58;;;19.60;;
85983;SDS011;76557;45.488;12.254;2024-02-21T21:13:03;40.15;;;19.92;;
85983;SDS011;76557;45.488;12.254;2024-02-21T21:16:59;37.72;;;19.67;;
85983;SDS011;76557;45.488;12.254;2024-02-21T21:20:58;39.40;;;20.88;;
85983;SDS011;76557;45.488;12.254;2024-02-21T21:24:53;43.05;;;21.65;;
85983;SDS011;76557;45.488;12.254;2024-02-21T21:28:50;44.55;;;22.60;;
85983;SDS011;76557;45.488;12.254;2024-02-21T21:32:51;40.17;;;20.27;;
85983;SDS011;76557;45.488;12.254;2024-02-21T21:36:46;40.63;;;19.58;;
85983;SDS011;76557;45.488;12.254;2024-02-21T21:40:42;38.50;;;20.48;;
85983;SDS011;76557;45.488;12.254;2024-02-21T21:44:38;37.92;;;20.30;;
85983;SDS011;76557;45.488;12.254;2024-02-21T21:48:33;38.03;;;19.85;;
85983;SDS011;76557;45.488;12.254;2024-02-21T21:52:28;38.17;;;21.73;;
85983;SDS011;76557;45.488;12.254;2024-02-21T21:56:24;39.35;;;23.20;;
85983;SDS011;76557;45.488;12.254;2024-02-21T22:00:20;36.72;;;19.10;;
85983;SDS011;76557;45.488;12.254;2024-02-21T22:04:15;40.50;;;20.75;;
85983;SDS011;76557;45.488;12.254;2024-02-21T22:08:10;39.60;;;20.17;;
85983;SDS011;76557;45.488;12.254;2024-02-21T22:12:06;42.20;;;21.15;;
85983;SDS011;76557;45.488;12.254;2024-02-21T22:16:01;44.38;;;21.48;;
85983;SDS011;76557;45.488;12.254;2024-02-21T22:19:59;36.90;;;20.23;;
85983;SDS011;76557;45.488;12.254;2024-02-21T22:23:54;44.70;;;20.80;;
85983;SDS011;76557;45.488;12.254;2024-02-21T22:27:50;42.78;;;21.27;;
85983;SDS011;76557;45.488;12.254;2024-02-21T22:31:45;40.50;;;21.58;;
85983;SDS011;76557;45.488;12.254;2024-02-21T22:35:41;40.70;;;18.90;;
85983;SDS011;76557;45.488;12.254;2024-02-21T22:39:37;40.40;;;19.63;;
85983;SDS011;76557;45.488;12.254;2024-02-21T22:43:32;45.45;;;22.98;;
85983;SDS011;76557;45.488;12.254;2024-02-21T22:47:28;41.45;;;20.77;;
85983;SDS011;76557;45.488;12.254;2024-02-21T22:51:23;42.00;;;20.60;;
85983;SDS011;76557;45.488;12.254;2024-02-21T22:55:19;44.45;;;20.05;;
85983;SDS011;76557;45.488;12.254;2024-02-21T22:59:14;44.20;;;24.88;;
85983;SDS011;76557;45.488;12.254;2024-02-21T23:03:09;46.17;;;22.27;;
85983;SDS011;76557;45.488;12.254;2024-02-21T23:07:05;38.22;;;22.85;;
85983;SDS011;76557;45.488;12.254;2024-02-21T23:11:00;44.10;;;23.48;;
85983;SDS011;76557;45.488;12.254;2024-02-21T23:14:58;34.88;;;19.13;;
85983;SDS011;76557;45.488;12.254;2024-02-21T23:18:54;38.05;;;22.10;;
85983;SDS011;76557;45.488;12.254;2024-02-21T23:22:49;38.03;;;20.00;;
85983;SDS011;76557;45.488;12.254;2024-02-21T23:26:45;42.67;;;19.35;;
85983;SDS011;76557;45.488;12.254;2024-02-21T23:30:40;35.95;;;19.05;;
85983;SDS011;76557;45.488;12.254;2024-02-21T23:34:35;40.38;;;22.33;;